sensor_id;sensor_type;location;lat;lon;timestamp;P1;durP1;ratioP1;P2;durP2;ratioP2
41077;SDS011;26823;42.662;23.352;2022-08-19T00:01:46;6.85;;;6.07;;
41077;SDS011;26823;42.662;23.352;2022-08-19T00:04:13;6.68;;;5.75;;
41077;SDS011;26823;42.662;23.352;2022-08-19T00:06:42;6.45;;;5.88;;
41077;SDS011;26823;42.662;23.352;2022-08-19T00:09:11;8.57;;;7.13;;
41077;SDS011;26823;42.662;23.352;2022-08-19T00:11:39;7.63;;;6.82;;
41077;SDS011;26823;42.662;23.352;2022-08-19T00:14:06;11.73;;;8.40;;
41077;SDS011;26823;42.662;23.352;2022-08-19T00:16:35;9.07;;;7.57;;
41077;SDS011;26823;42.662;23.352;2022-08-19T00:19:01;7.80;;;6.80;;
41077;SDS011;26823;42.662;23.352;2022-08-19T00:21:28;9.73;;;7.07;;
41077;SDS011;26823;42.662;23.352;2022-08-19T00:23:54;8.00;;;6.85;;
41077;SDS011;26823;42.662;23.352;2022-08-19T00:26:23;7.47;;;6.70;;
41077;SDS011;26823;42.662;23.352;2022-08-19T00:28:49;8.48;;;6.40;;
41077;SDS011;26823;42.662;23.352;2022-08-19T00:31:15;9.13;;;6.22;;
41077;SDS011;26823;42.662;23.352;2022-08-19T00:33:41;6.40;;;5.82;;
41077;SDS011;26823;42.662;23.352;2022-08-19T00:36:07;13.60;;;5.78;;
41077;SDS011;26823;42.662;23.352;2022-08-19T00:38:34;8.02;;;6.20;;
41077;SDS011;26823;42.662;23.352;2022-08-19T00:41:00;9.68;;;6.53;;
41077;SDS011;26823;42.662;23.352;2022-08-19T00:43:26;8.70;;;6.38;;
41077;SDS011;26823;42.662;23.352;2022-08-19T00:45:52;11.80;;;7.00;;
41077;SDS011;26823;42.662;23.352;2022-08-19T00:48:18;9.35;;;6.28;;
41077;SDS011;26823;42.662;23.352;2022-08-19T00:50:46;9.38;;;6.55;;
41077;SDS011;26823;42.662;23.352;2022-08-19T00:53:14;7.20;;;6.60;;
41077;SDS011;26823;42.662;23.352;2022-08-19T00:55:44;6.10;;;5.50;;
41077;SDS011;26823;42.662;23.352;2022-08-19T00:58:14;10.75;;;6.38;;
41077;SDS011;26823;42.662;23.352;2022-08-19T01:00:43;7.25;;;6.28;;
41077;SDS011;26823;42.662;23.352;2022-08-19T01:03:10;7.22;;;6.53;;
41077;SDS011;26823;42.662;23.352;2022-08-19T01:05:39;11.00;;;7.35;;
41077;SDS011;26823;42.662;23.352;2022-08-19T01:08:07;7.72;;;6.93;;
41077;SDS011;26823;42.662;23.352;2022-08-19T01:10:37;7.47;;;6.57;;
41077;SDS011;26823;42.662;23.352;2022-08-19T01:13:06;7.97;;;7.28;;
41077;SDS011;26823;42.662;23.352;2022-08-19T01:15:32;7.80;;;7.00;;
41077;SDS011;26823;42.662;23.352;2022-08-19T01:18:08;8.75;;;6.95;;
41077;SDS011;26823;42.662;23.352;2022-08-19T01:20:35;9.75;;;7.18;;
41077;SDS011;26823;42.662;23.352;2022-08-19T01:23:01;7.82;;;6.53;;
41077;SDS011;26823;42.662;23.352;2022-08-19T01:25:29;7.05;;;6.38;;
41077;SDS011;26823;42.662;23.352;2022-08-19T01:27:57;7.97;;;6.78;;
41077;SDS011;26823;42.662;23.352;2022-08-19T01:30:26;9.02;;;7.70;;
41077;SDS011;26823;42.662;23.352;2022-08-19T01:32:54;9.30;;;6.35;;
41077;SDS011;26823;42.662;23.352;2022-08-19T01:35:21;10.48;;;7.50;;
41077;SDS011;26823;42.662;23.352;2022-08-19T01:37:53;7.93;;;7.18;;
41077;SDS011;26823;42.662;23.352;2022-08-19T01:40:21;7.63;;;6.93;;
41077;SDS011;26823;42.662;23.352;2022-08-19T01:42:48;9.18;;;6.82;;
41077;SDS011;26823;42.662;23.352;2022-08-19T01:45:14;8.32;;;6.85;;
41077;SDS011;26823;42.662;23.352;2022-08-19T01:47:41;7.82;;;6.85;;
41077;SDS011;26823;42.662;23.352;2022-08-19T01:50:07;8.70;;;7.35;;
41077;SDS011;26823;42.662;23.352;2022-08-19T01:52:38;7.90;;;7.07;;
41077;SDS011;26823;42.662;23.352;2022-08-19T01:55:06;9.23;;;7.40;;
41077;SDS011;26823;42.662;23.352;2022-08-19T01:57:34;9.38;;;6.97;;
41077;SDS011;26823;42.662;23.352;2022-08-19T02:00:00;12.35;;;6.68;;
41077;SDS011;26823;42.662;23.352;2022-08-19T02:02:29;7.78;;;6.97;;
41077;SDS011;26823;42.662;23.352;2022-08-19T02:04:54;7.65;;;6.85;;
41077;SDS011;26823;42.662;23.352;2022-08-19T02:07:20;7.65;;;6.93;;
41077;SDS011;26823;42.662;23.352;2022-08-19T02:09:46;7.57;;;6.80;;
41077;SDS011;26823;42.662;23.352;2022-08-19T02:12:13;8.80;;;7.72;;
41077;SDS011;26823;42.662;23.352;2022-08-19T02:14:39;8.45;;;7.03;;
41077;SDS011;26823;42.662;23.352;2022-08-19T02:17:05;8.73;;;7.10;;
41077;SDS011;26823;42.662;23.352;2022-08-19T02:19:30;7.72;;;6.90;;
41077;SDS011;26823;42.662;23.352;2022-08-19T02:21:58;7.78;;;7.05;;
41077;SDS011;26823;42.662;23.352;2022-08-19T02:24:24;9.60;;;7.60;;
41077;SDS011;26823;42.662;23.352;2022-08-19T02:26:50;8.93;;;6.80;;
41077;SDS011;26823;42.662;23.352;2022-08-19T02:29:16;8.32;;;7.38;;
41077;SDS011;26823;42.662;23.352;2022-08-19T02:31:41;8.00;;;7.20;;
41077;SDS011;26823;42.662;23.352;2022-08-19T02:34:07;9.40;;;7.10;;
41077;SDS011;26823;42.662;23.352;2022-08-19T02:36:32;7.82;;;7.05;;
41077;SDS011;26823;42.662;23.352;2022-08-19T02:38:58;8.27;;;7.43;;
41077;SDS011;26823;42.662;23.352;2022-08-19T02:41:25;7.90;;;7.13;;
41077;SDS011;26823;42.662;23.352;2022-08-19T02:43:53;9.57;;;7.40;;
41077;SDS011;26823;42.662;23.352;2022-08-19T02:46:22;8.27;;;7.47;;
41077;SDS011;26823;42.662;23.352;2022-08-19T02:48:51;9.77;;;7.68;;
41077;SDS011;26823;42.662;23.352;2022-08-19T02:51:19;10.77;;;7.65;;
41077;SDS011;26823;42.662;23.352;2022-08-19T02:53:47;9.10;;;7.65;;
41077;SDS011;26823;42.662;23.352;2022-08-19T02:56:12;8.23;;;7.43;;
41077;SDS011;26823;42.662;23.352;2022-08-19T02:58:38;8.45;;;7.75;;
41077;SDS011;26823;42.662;23.352;2022-08-19T03:01:04;8.30;;;7.38;;
41077;SDS011;26823;42.662;23.352;2022-08-19T03:03:29;10.15;;;7.40;;
41077;SDS011;26823;42.662;23.352;2022-08-19T03:06:11;9.20;;;7.72;;
41077;SDS011;26823;42.662;23.352;2022-08-19T03:08:38;9.48;;;7.88;;
41077;SDS011;26823;42.662;23.352;2022-08-19T03:11:05;8.70;;;7.50;;
41077;SDS011;26823;42.662;23.352;2022-08-19T03:13:31;10.30;;;8.30;;
41077;SDS011;26823;42.662;23.352;2022-08-19T03:15:56;9.73;;;7.85;;
41077;SDS011;26823;42.662;23.352;2022-08-19T03:18:22;9.32;;;7.47;;
41077;SDS011;26823;42.662;23.352;2022-08-19T03:20:49;14.60;;;8.02;;
41077;SDS011;26823;42.662;23.352;2022-08-19T03:23:17;8.65;;;7.80;;
41077;SDS011;26823;42.662;23.352;2022-08-19T03:25:44;8.90;;;7.82;;
41077;SDS011;26823;42.662;23.352;2022-08-19T03:28:11;8.88;;;7.97;;
41077;SDS011;26823;42.662;23.352;2022-08-19T03:30:38;12.10;;;8.18;;
41077;SDS011;26823;42.662;23.352;2022-08-19T03:33:06;8.25;;;7.35;;
41077;SDS011;26823;42.662;23.352;2022-08-19T03:35:32;11.23;;;8.10;;
41077;SDS011;26823;42.662;23.352;2022-08-19T03:37:59;9.50;;;8.60;;
41077;SDS011;26823;42.662;23.352;2022-08-19T03:40:25;10.02;;;8.45;;
41077;SDS011;26823;42.662;23.352;2022-08-19T03:42:51;8.98;;;8.18;;
41077;SDS011;26823;42.662;23.352;2022-08-19T03:45:16;9.27;;;8.38;;
41077;SDS011;26823;42.662;23.352;2022-08-19T03:47:42;14.10;;;8.93;;
41077;SDS011;26823;42.662;23.352;2022-08-19T03:50:08;12.15;;;8.98;;
41077;SDS011;26823;42.662;23.352;2022-08-19T03:52:34;11.20;;;8.43;;
41077;SDS011;26823;42.662;23.352;2022-08-19T03:55:00;12.25;;;8.68;;
41077;SDS011;26823;42.662;23.352;2022-08-19T03:57:27;8.85;;;8.07;;
41077;SDS011;26823;42.662;23.352;2022-08-19T03:59:52;11.43;;;8.18;;
41077;SDS011;26823;42.662;23.352;2022-08-19T04:02:18;12.23;;;8.60;;
41077;SDS011;26823;42.662;23.352;2022-08-19T04:04:43;10.27;;;8.35;;
41077;SDS011;26823;42.662;23.352;2022-08-19T04:07:09;10.02;;;8.55;;
41077;SDS011;26823;42.662;23.352;2022-08-19T04:09:37;13.75;;;9.10;;
41077;SDS011;26823;42.662;23.352;2022-08-19T04:12:03;9.95;;;8.48;;
41077;SDS011;26823;42.662;23.352;2022-08-19T04:14:31;11.68;;;10.48;;
41077;SDS011;26823;42.662;23.352;2022-08-19T04:16:58;10.70;;;9.25;;
41077;SDS011;26823;42.662;23.352;2022-08-19T04:19:25;8.75;;;7.82;;
41077;SDS011;26823;42.662;23.352;2022-08-19T04:21:52;11.48;;;8.68;;
41077;SDS011;26823;42.662;23.352;2022-08-19T04:24:19;13.48;;;8.73;;
41077;SDS011;26823;42.662;23.352;2022-08-19T04:26:46;9.35;;;8.55;;
41077;SDS011;26823;42.662;23.352;2022-08-19T04:29:14;9.63;;;8.63;;
41077;SDS011;26823;42.662;23.352;2022-08-19T04:31:45;10.55;;;9.65;;
41077;SDS011;26823;42.662;23.352;2022-08-19T04:34:12;10.05;;;8.55;;
41077;SDS011;26823;42.662;23.352;2022-08-19T04:36:40;10.02;;;8.95;;
41077;SDS011;26823;42.662;23.352;2022-08-19T04:39:08;12.05;;;8.63;;
41077;SDS011;26823;42.662;23.352;2022-08-19T04:41:35;9.20;;;8.05;;
41077;SDS011;26823;42.662;23.352;2022-08-19T04:44:20;9.77;;;8.65;;
41077;SDS011;26823;42.662;23.352;2022-08-19T04:46:46;13.05;;;8.88;;
41077;SDS011;26823;42.662;23.352;2022-08-19T04:49:16;10.25;;;8.30;;
41077;SDS011;26823;42.662;23.352;2022-08-19T04:51:43;10.55;;;8.32;;
41077;SDS011;26823;42.662;23.352;2022-08-19T04:54:10;13.43;;;8.18;;
41077;SDS011;26823;42.662;23.352;2022-08-19T04:56:36;10.55;;;7.80;;
41077;SDS011;26823;42.662;23.352;2022-08-19T04:59:02;9.20;;;8.07;;
41077;SDS011;26823;42.662;23.352;2022-08-19T05:01:31;12.10;;;7.57;;
41077;SDS011;26823;42.662;23.352;2022-08-19T05:04:01;10.95;;;8.13;;
41077;SDS011;26823;42.662;23.352;2022-08-19T05:06:30;9.43;;;8.45;;
41077;SDS011;26823;42.662;23.352;2022-08-19T05:08:58;13.07;;;8.10;;
41077;SDS011;26823;42.662;23.352;2022-08-19T05:11:25;11.20;;;7.90;;
41077;SDS011;26823;42.662;23.352;2022-08-19T05:13:53;13.63;;;8.50;;
41077;SDS011;26823;42.662;23.352;2022-08-19T05:16:20;11.55;;;9.15;;
41077;SDS011;26823;42.662;23.352;2022-08-19T05:18:47;10.70;;;8.85;;
41077;SDS011;26823;42.662;23.352;2022-08-19T05:21:32;10.55;;;9.45;;
41077;SDS011;26823;42.662;23.352;2022-08-19T05:24:20;12.45;;;8.98;;
41077;SDS011;26823;42.662;23.352;2022-08-19T05:26:47;12.48;;;9.35;;
41077;SDS011;26823;42.662;23.352;2022-08-19T05:29:14;14.20;;;8.90;;
41077;SDS011;26823;42.662;23.352;2022-08-19T05:31:41;11.85;;;8.75;;
41077;SDS011;26823;42.662;23.352;2022-08-19T05:34:07;13.30;;;9.38;;
41077;SDS011;26823;42.662;23.352;2022-08-19T05:36:38;11.18;;;8.18;;
41077;SDS011;26823;42.662;23.352;2022-08-19T05:39:06;10.50;;;8.80;;
41077;SDS011;26823;42.662;23.352;2022-08-19T05:41:34;9.77;;;8.05;;
41077;SDS011;26823;42.662;23.352;2022-08-19T05:44:03;13.55;;;8.20;;
41077;SDS011;26823;42.662;23.352;2022-08-19T05:46:34;9.45;;;8.50;;
41077;SDS011;26823;42.662;23.352;2022-08-19T05:49:02;8.50;;;7.55;;
41077;SDS011;26823;42.662;23.352;2022-08-19T05:51:29;13.65;;;7.97;;
41077;SDS011;26823;42.662;23.352;2022-08-19T05:53:55;11.55;;;7.78;;
41077;SDS011;26823;42.662;23.352;2022-08-19T05:56:20;10.60;;;8.38;;
41077;SDS011;26823;42.662;23.352;2022-08-19T05:58:46;10.82;;;7.53;;
41077;SDS011;26823;42.662;23.352;2022-08-19T06:01:12;8.82;;;7.43;;
41077;SDS011;26823;42.662;23.352;2022-08-19T06:03:42;14.90;;;8.45;;
41077;SDS011;26823;42.662;23.352;2022-08-19T06:06:09;8.73;;;7.30;;
41077;SDS011;26823;42.662;23.352;2022-08-19T06:08:36;8.45;;;6.72;;
41077;SDS011;26823;42.662;23.352;2022-08-19T06:11:30;8.05;;;7.35;;
41077;SDS011;26823;42.662;23.352;2022-08-19T06:14:02;7.85;;;6.93;;
41077;SDS011;26823;42.662;23.352;2022-08-19T06:16:30;19.58;;;7.22;;
41077;SDS011;26823;42.662;23.352;2022-08-19T06:18:59;10.88;;;8.15;;
41077;SDS011;26823;42.662;23.352;2022-08-19T06:21:27;8.93;;;7.65;;
41077;SDS011;26823;42.662;23.352;2022-08-19T06:23:54;8.05;;;7.32;;
41077;SDS011;26823;42.662;23.352;2022-08-19T06:26:23;8.90;;;7.63;;
41077;SDS011;26823;42.662;23.352;2022-08-19T06:28:49;9.48;;;7.05;;
41077;SDS011;26823;42.662;23.352;2022-08-19T06:31:20;12.02;;;7.53;;
41077;SDS011;26823;42.662;23.352;2022-08-19T06:33:50;13.85;;;8.07;;
41077;SDS011;26823;42.662;23.352;2022-08-19T06:36:26;9.80;;;7.72;;
41077;SDS011;26823;42.662;23.352;2022-08-19T06:39:00;14.00;;;8.10;;
41077;SDS011;26823;42.662;23.352;2022-08-19T06:41:27;11.95;;;7.97;;
41077;SDS011;26823;42.662;23.352;2022-08-19T06:43:54;9.77;;;7.78;;
41077;SDS011;26823;42.662;23.352;2022-08-19T06:46:23;11.07;;;7.88;;
41077;SDS011;26823;42.662;23.352;2022-08-19T06:49:03;11.65;;;7.28;;
41077;SDS011;26823;42.662;23.352;2022-08-19T06:51:37;14.25;;;7.45;;
41077;SDS011;26823;42.662;23.352;2022-08-19T06:54:03;10.93;;;7.38;;
41077;SDS011;26823;42.662;23.352;2022-08-19T06:56:30;13.38;;;6.75;;
41077;SDS011;26823;42.662;23.352;2022-08-19T06:59:00;10.38;;;7.90;;
41077;SDS011;26823;42.662;23.352;2022-08-19T07:01:31;11.80;;;7.63;;
41077;SDS011;26823;42.662;23.352;2022-08-19T07:03:59;18.00;;;7.95;;
41077;SDS011;26823;42.662;23.352;2022-08-19T07:06:26;10.63;;;7.25;;
41077;SDS011;26823;42.662;23.352;2022-08-19T07:08:52;9.95;;;7.07;;
41077;SDS011;26823;42.662;23.352;2022-08-19T07:11:24;10.15;;;6.70;;
41077;SDS011;26823;42.662;23.352;2022-08-19T07:13:55;13.10;;;7.57;;
41077;SDS011;26823;42.662;23.352;2022-08-19T07:16:50;15.30;;;8.30;;
41077;SDS011;26823;42.662;23.352;2022-08-19T07:19:19;11.07;;;7.18;;
41077;SDS011;26823;42.662;23.352;2022-08-19T07:21:56;14.32;;;7.20;;
41077;SDS011;26823;42.662;23.352;2022-08-19T07:24:25;10.98;;;8.02;;
41077;SDS011;26823;42.662;23.352;2022-08-19T07:26:55;9.65;;;7.15;;
41077;SDS011;26823;42.662;23.352;2022-08-19T07:29:26;10.70;;;7.03;;
41077;SDS011;26823;42.662;23.352;2022-08-19T07:31:53;13.95;;;7.40;;
41077;SDS011;26823;42.662;23.352;2022-08-19T07:34:23;11.07;;;7.00;;
41077;SDS011;26823;42.662;23.352;2022-08-19T07:36:50;14.32;;;7.25;;
41077;SDS011;26823;42.662;23.352;2022-08-19T07:39:18;8.55;;;7.28;;
41077;SDS011;26823;42.662;23.352;2022-08-19T07:41:46;13.65;;;6.72;;
41077;SDS011;26823;42.662;23.352;2022-08-19T07:44:13;10.23;;;6.68;;
41077;SDS011;26823;42.662;23.352;2022-08-19T07:46:41;7.57;;;6.88;;
41077;SDS011;26823;42.662;23.352;2022-08-19T07:49:11;15.60;;;6.63;;
41077;SDS011;26823;42.662;23.352;2022-08-19T07:51:42;10.10;;;6.57;;
41077;SDS011;26823;42.662;23.352;2022-08-19T07:54:09;9.00;;;6.47;;
41077;SDS011;26823;42.662;23.352;2022-08-19T07:56:36;8.18;;;6.85;;
41077;SDS011;26823;42.662;23.352;2022-08-19T07:59:04;14.18;;;6.82;;
41077;SDS011;26823;42.662;23.352;2022-08-19T08:01:30;11.30;;;7.63;;
41077;SDS011;26823;42.662;23.352;2022-08-19T08:03:56;11.75;;;7.45;;
41077;SDS011;26823;42.662;23.352;2022-08-19T08:06:41;12.13;;;6.93;;
41077;SDS011;26823;42.662;23.352;2022-08-19T08:09:27;16.67;;;7.57;;
41077;SDS011;26823;42.662;23.352;2022-08-19T08:12:06;12.88;;;7.60;;
41077;SDS011;26823;42.662;23.352;2022-08-19T08:14:39;12.45;;;7.28;;
41077;SDS011;26823;42.662;23.352;2022-08-19T08:17:14;10.05;;;7.03;;
41077;SDS011;26823;42.662;23.352;2022-08-19T08:19:42;14.57;;;6.93;;
41077;SDS011;26823;42.662;23.352;2022-08-19T08:22:09;9.05;;;5.80;;
41077;SDS011;26823;42.662;23.352;2022-08-19T08:25:06;10.43;;;5.95;;
41077;SDS011;26823;42.662;23.352;2022-08-19T08:27:38;9.95;;;6.95;;
41077;SDS011;26823;42.662;23.352;2022-08-19T08:30:12;10.40;;;5.95;;
41077;SDS011;26823;42.662;23.352;2022-08-19T08:32:41;6.00;;;5.40;;
41077;SDS011;26823;42.662;23.352;2022-08-19T08:35:09;8.38;;;6.07;;
41077;SDS011;26823;42.662;23.352;2022-08-19T08:37:37;8.57;;;7.03;;
41077;SDS011;26823;42.662;23.352;2022-08-19T08:40:05;8.68;;;6.13;;
41077;SDS011;26823;42.662;23.352;2022-08-19T08:42:39;10.73;;;6.45;;
41077;SDS011;26823;42.662;23.352;2022-08-19T08:45:16;13.02;;;5.65;;
41077;SDS011;26823;42.662;23.352;2022-08-19T08:47:44;7.82;;;5.95;;
41077;SDS011;26823;42.662;23.352;2022-08-19T08:53:06;9.85;;;6.10;;
41077;SDS011;26823;42.662;23.352;2022-08-19T08:55:33;9.38;;;5.45;;
41077;SDS011;26823;42.662;23.352;2022-08-19T09:01:08;9.68;;;5.97;;
41077;SDS011;26823;42.662;23.352;2022-08-19T09:03:36;8.98;;;6.05;;
41077;SDS011;26823;42.662;23.352;2022-08-19T09:08:40;6.28;;;5.18;;
41077;SDS011;26823;42.662;23.352;2022-08-19T09:16:38;8.18;;;4.15;;
41077;SDS011;26823;42.662;23.352;2022-08-19T09:19:05;7.25;;;4.70;;
41077;SDS011;26823;42.662;23.352;2022-08-19T09:21:35;4.45;;;3.88;;
41077;SDS011;26823;42.662;23.352;2022-08-19T09:24:02;6.03;;;4.32;;
41077;SDS011;26823;42.662;23.352;2022-08-19T09:26:37;4.80;;;4.18;;
41077;SDS011;26823;42.662;23.352;2022-08-19T09:31:31;3.70;;;3.40;;
41077;SDS011;26823;42.662;23.352;2022-08-19T09:33:57;3.85;;;3.55;;
41077;SDS011;26823;42.662;23.352;2022-08-19T09:36:23;5.20;;;3.83;;
41077;SDS011;26823;42.662;23.352;2022-08-19T09:38:52;6.10;;;3.63;;
41077;SDS011;26823;42.662;23.352;2022-08-19T09:41:19;5.10;;;3.80;;
41077;SDS011;26823;42.662;23.352;2022-08-19T09:43:48;7.13;;;3.92;;
41077;SDS011;26823;42.662;23.352;2022-08-19T09:48:47;3.75;;;3.45;;
41077;SDS011;26823;42.662;23.352;2022-08-19T09:51:14;8.45;;;3.40;;
41077;SDS011;26823;42.662;23.352;2022-08-19T09:53:41;6.38;;;4.40;;
41077;SDS011;26823;42.662;23.352;2022-08-19T09:56:08;6.22;;;4.13;;
41077;SDS011;26823;42.662;23.352;2022-08-19T09:58:34;7.22;;;4.40;;
41077;SDS011;26823;42.662;23.352;2022-08-19T10:01:01;6.78;;;3.90;;
41077;SDS011;26823;42.662;23.352;2022-08-19T10:03:28;6.32;;;3.50;;
41077;SDS011;26823;42.662;23.352;2022-08-19T10:05:54;8.32;;;4.10;;
41077;SDS011;26823;42.662;23.352;2022-08-19T10:08:22;7.57;;;3.90;;
41077;SDS011;26823;42.662;23.352;2022-08-19T10:10:53;5.60;;;3.78;;
41077;SDS011;26823;42.662;23.352;2022-08-19T10:16:13;5.90;;;4.05;;
41077;SDS011;26823;42.662;23.352;2022-08-19T10:18:40;4.40;;;3.90;;
41077;SDS011;26823;42.662;23.352;2022-08-19T10:23:37;5.60;;;3.67;;
41077;SDS011;26823;42.662;23.352;2022-08-19T10:26:04;5.63;;;3.28;;
41077;SDS011;26823;42.662;23.352;2022-08-19T10:28:35;5.60;;;3.72;;
41077;SDS011;26823;42.662;23.352;2022-08-19T10:31:08;4.82;;;4.15;;
41077;SDS011;26823;42.662;23.352;2022-08-19T10:33:36;4.45;;;4.03;;
41077;SDS011;26823;42.662;23.352;2022-08-19T10:36:04;4.13;;;3.35;;
41077;SDS011;26823;42.662;23.352;2022-08-19T10:38:34;10.60;;;4.28;;
41077;SDS011;26823;42.662;23.352;2022-08-19T10:41:13;5.20;;;3.88;;
41077;SDS011;26823;42.662;23.352;2022-08-19T10:43:41;6.60;;;3.78;;
41077;SDS011;26823;42.662;23.352;2022-08-19T10:46:08;4.63;;;4.10;;
41077;SDS011;26823;42.662;23.352;2022-08-19T10:48:35;4.40;;;4.00;;
41077;SDS011;26823;42.662;23.352;2022-08-19T10:51:01;7.45;;;3.88;;
41077;SDS011;26823;42.662;23.352;2022-08-19T10:53:46;6.47;;;3.90;;
41077;SDS011;26823;42.662;23.352;2022-08-19T10:56:11;7.00;;;4.10;;
41077;SDS011;26823;42.662;23.352;2022-08-19T10:58:55;4.20;;;3.75;;
41077;SDS011;26823;42.662;23.352;2022-08-19T11:01:23;4.13;;;3.72;;
41077;SDS011;26823;42.662;23.352;2022-08-19T11:03:48;4.00;;;3.70;;
41077;SDS011;26823;42.662;23.352;2022-08-19T11:06:15;4.57;;;4.15;;
41077;SDS011;26823;42.662;23.352;2022-08-19T11:08:41;6.05;;;4.75;;
41077;SDS011;26823;42.662;23.352;2022-08-19T11:11:09;4.53;;;4.13;;
41077;SDS011;26823;42.662;23.352;2022-08-19T11:13:37;4.40;;;3.60;;
41077;SDS011;26823;42.662;23.352;2022-08-19T11:16:07;5.68;;;4.03;;
41077;SDS011;26823;42.662;23.352;2022-08-19T11:18:39;6.38;;;4.93;;
41077;SDS011;26823;42.662;23.352;2022-08-19T11:21:08;5.80;;;3.67;;
41077;SDS011;26823;42.662;23.352;2022-08-19T11:23:46;4.78;;;4.30;;
41077;SDS011;26823;42.662;23.352;2022-08-19T11:26:13;5.35;;;3.78;;
41077;SDS011;26823;42.662;23.352;2022-08-19T11:28:40;5.70;;;4.10;;
41077;SDS011;26823;42.662;23.352;2022-08-19T11:31:13;6.22;;;3.90;;
41077;SDS011;26823;42.662;23.352;2022-08-19T11:33:40;5.82;;;3.83;;
41077;SDS011;26823;42.662;23.352;2022-08-19T11:36:06;4.78;;;4.00;;
41077;SDS011;26823;42.662;23.352;2022-08-19T11:38:32;5.10;;;4.07;;
41077;SDS011;26823;42.662;23.352;2022-08-19T11:41:00;6.25;;;4.20;;
41077;SDS011;26823;42.662;23.352;2022-08-19T11:43:28;4.68;;;4.22;;
41077;SDS011;26823;42.662;23.352;2022-08-19T11:45:55;7.45;;;4.30;;
41077;SDS011;26823;42.662;23.352;2022-08-19T11:48:21;4.15;;;3.78;;
41077;SDS011;26823;42.662;23.352;2022-08-19T11:50:53;16.70;;;3.92;;
41077;SDS011;26823;42.662;23.352;2022-08-19T11:53:21;4.38;;;3.88;;
41077;SDS011;26823;42.662;23.352;2022-08-19T11:55:47;4.28;;;3.90;;
41077;SDS011;26823;42.662;23.352;2022-08-19T11:58:14;4.28;;;3.88;;
41077;SDS011;26823;42.662;23.352;2022-08-19T12:00:41;6.25;;;4.20;;
41077;SDS011;26823;42.662;23.352;2022-08-19T12:03:09;6.20;;;4.00;;
41077;SDS011;26823;42.662;23.352;2022-08-19T12:05:36;10.95;;;4.15;;
41077;SDS011;26823;42.662;23.352;2022-08-19T12:08:03;5.53;;;4.20;;
41077;SDS011;26823;42.662;23.352;2022-08-19T12:10:29;9.52;;;4.32;;
41077;SDS011;26823;42.662;23.352;2022-08-19T12:12:54;6.50;;;4.25;;
41077;SDS011;26823;42.662;23.352;2022-08-19T12:15:19;5.80;;;4.15;;
41077;SDS011;26823;42.662;23.352;2022-08-19T12:17:45;4.60;;;4.00;;
41077;SDS011;26823;42.662;23.352;2022-08-19T12:20:11;5.82;;;4.40;;
41077;SDS011;26823;42.662;23.352;2022-08-19T12:22:38;5.05;;;3.95;;
41077;SDS011;26823;42.662;23.352;2022-08-19T12:25:06;8.85;;;4.50;;
41077;SDS011;26823;42.662;23.352;2022-08-19T12:27:33;6.50;;;4.28;;
41077;SDS011;26823;42.662;23.352;2022-08-19T12:30:00;5.90;;;4.10;;
41077;SDS011;26823;42.662;23.352;2022-08-19T12:32:26;6.93;;;4.43;;
41077;SDS011;26823;42.662;23.352;2022-08-19T12:34:52;4.80;;;4.40;;
41077;SDS011;26823;42.662;23.352;2022-08-19T12:37:17;5.25;;;3.80;;
41077;SDS011;26823;42.662;23.352;2022-08-19T12:39:43;7.25;;;4.60;;
41077;SDS011;26823;42.662;23.352;2022-08-19T12:42:12;5.13;;;4.63;;
41077;SDS011;26823;42.662;23.352;2022-08-19T12:44:39;4.22;;;3.83;;
41077;SDS011;26823;42.662;23.352;2022-08-19T12:47:06;4.63;;;3.83;;
41077;SDS011;26823;42.662;23.352;2022-08-19T12:49:33;5.18;;;4.40;;
41077;SDS011;26823;42.662;23.352;2022-08-19T12:51:59;7.93;;;4.53;;
41077;SDS011;26823;42.662;23.352;2022-08-19T12:54:26;5.25;;;4.18;;
41077;SDS011;26823;42.662;23.352;2022-08-19T12:56:52;7.65;;;4.97;;
41077;SDS011;26823;42.662;23.352;2022-08-19T12:59:17;8.10;;;4.80;;
41077;SDS011;26823;42.662;23.352;2022-08-19T13:01:43;5.78;;;4.20;;
41077;SDS011;26823;42.662;23.352;2022-08-19T13:04:09;3.97;;;3.67;;
41077;SDS011;26823;42.662;23.352;2022-08-19T13:06:35;6.72;;;4.28;;
41077;SDS011;26823;42.662;23.352;2022-08-19T13:09:01;6.07;;;4.25;;
41077;SDS011;26823;42.662;23.352;2022-08-19T13:11:27;4.57;;;4.18;;
41077;SDS011;26823;42.662;23.352;2022-08-19T13:13:57;5.93;;;4.20;;
41077;SDS011;26823;42.662;23.352;2022-08-19T13:16:23;4.53;;;4.18;;
41077;SDS011;26823;42.662;23.352;2022-08-19T13:18:50;8.38;;;4.30;;
41077;SDS011;26823;42.662;23.352;2022-08-19T13:21:19;5.47;;;4.88;;
41077;SDS011;26823;42.662;23.352;2022-08-19T13:23:46;5.72;;;4.40;;
41077;SDS011;26823;42.662;23.352;2022-08-19T13:26:12;6.68;;;4.50;;
41077;SDS011;26823;42.662;23.352;2022-08-19T13:28:38;4.88;;;4.38;;
41077;SDS011;26823;42.662;23.352;2022-08-19T13:31:25;6.63;;;4.85;;
41077;SDS011;26823;42.662;23.352;2022-08-19T13:34:10;5.15;;;4.20;;
41077;SDS011;26823;42.662;23.352;2022-08-19T13:36:36;7.97;;;4.68;;
41077;SDS011;26823;42.662;23.352;2022-08-19T13:39:03;6.32;;;4.97;;
41077;SDS011;26823;42.662;23.352;2022-08-19T13:41:29;5.43;;;4.93;;
41077;SDS011;26823;42.662;23.352;2022-08-19T13:43:55;16.65;;;4.90;;
41077;SDS011;26823;42.662;23.352;2022-08-19T13:46:21;8.13;;;4.35;;
41077;SDS011;26823;42.662;23.352;2022-08-19T13:48:46;7.20;;;4.25;;
41077;SDS011;26823;42.662;23.352;2022-08-19T13:51:16;6.15;;;4.55;;
41077;SDS011;26823;42.662;23.352;2022-08-19T13:53:43;9.93;;;5.15;;
41077;SDS011;26823;42.662;23.352;2022-08-19T13:56:09;7.10;;;4.20;;
41077;SDS011;26823;42.662;23.352;2022-08-19T13:58:37;4.65;;;4.25;;
41077;SDS011;26823;42.662;23.352;2022-08-19T14:01:03;6.72;;;4.45;;
41077;SDS011;26823;42.662;23.352;2022-08-19T14:03:30;7.10;;;4.90;;
41077;SDS011;26823;42.662;23.352;2022-08-19T14:05:56;6.43;;;4.60;;
41077;SDS011;26823;42.662;23.352;2022-08-19T14:08:22;6.57;;;5.00;;
41077;SDS011;26823;42.662;23.352;2022-08-19T14:10:48;6.63;;;4.63;;
41077;SDS011;26823;42.662;23.352;2022-08-19T14:13:15;8.73;;;4.18;;
41077;SDS011;26823;42.662;23.352;2022-08-19T14:15:43;5.88;;;4.07;;
41077;SDS011;26823;42.662;23.352;2022-08-19T14:18:08;7.05;;;4.38;;
41077;SDS011;26823;42.662;23.352;2022-08-19T14:20:34;7.60;;;4.57;;
41077;SDS011;26823;42.662;23.352;2022-08-19T14:23:00;6.45;;;4.13;;
41077;SDS011;26823;42.662;23.352;2022-08-19T14:25:26;6.68;;;4.60;;
41077;SDS011;26823;42.662;23.352;2022-08-19T14:27:53;7.13;;;4.20;;
41077;SDS011;26823;42.662;23.352;2022-08-19T14:30:20;6.38;;;5.18;;
41077;SDS011;26823;42.662;23.352;2022-08-19T14:32:52;9.07;;;4.25;;
41077;SDS011;26823;42.662;23.352;2022-08-19T14:35:19;5.55;;;4.65;;
41077;SDS011;26823;42.662;23.352;2022-08-19T14:37:46;7.18;;;4.30;;
41077;SDS011;26823;42.662;23.352;2022-08-19T14:40:13;5.53;;;4.40;;
41077;SDS011;26823;42.662;23.352;2022-08-19T14:42:40;6.63;;;4.57;;
41077;SDS011;26823;42.662;23.352;2022-08-19T14:45:07;9.30;;;4.80;;
41077;SDS011;26823;42.662;23.352;2022-08-19T14:47:32;11.25;;;5.00;;
41077;SDS011;26823;42.662;23.352;2022-08-19T14:49:58;6.40;;;4.57;;
41077;SDS011;26823;42.662;23.352;2022-08-19T14:52:24;6.68;;;4.28;;
41077;SDS011;26823;42.662;23.352;2022-08-19T14:54:49;6.80;;;4.25;;
41077;SDS011;26823;42.662;23.352;2022-08-19T14:57:15;8.25;;;4.43;;
41077;SDS011;26823;42.662;23.352;2022-08-19T14:59:41;5.93;;;4.38;;
41077;SDS011;26823;42.662;23.352;2022-08-19T15:02:08;9.07;;;4.20;;